sensor_id;sensor_type;location;lat;lon;timestamp;pressure;altitude;pressure_sealevel;temperature;humidity
78313;BME280;67568;47.438;21.408;2023-09-19T00:01:27;100314.16;;;20.13;69.15
78313;BME280;67568;47.438;21.408;2023-09-19T00:03:54;100317.25;;;20.08;68.52
78313;BME280;67568;47.438;21.408;2023-09-19T00:06:20;100318.88;;;20.09;69.01
78313;BME280;67568;47.438;21.408;2023-09-19T00:08:47;100311.28;;;20.10;68.52
78313;BME280;67568;47.438;21.408;2023-09-19T00:11:14;100309.72;;;20.12;69.05
78313;BME280;67568;47.438;21.408;2023-09-19T00:13:41;100303.72;;;20.14;68.47
78313;BME280;67568;47.438;21.408;2023-09-19T00:16:09;100313.72;;;20.11;69.14
78313;BME280;67568;47.438;21.408;2023-09-19T00:18:37;100305.13;;;20.04;69.14
78313;BME280;67568;47.438;21.408;2023-09-19T00:21:04;100300.84;;;20.10;68.80
78313;BME280;67568;47.438;21.408;2023-09-19T00:23:31;100298.03;;;20.10;68.16
78313;BME280;67568;47.438;21.408;2023-09-19T00:26:01;100291.66;;;20.13;68.61
78313;BME280;67568;47.438;21.408;2023-09-19T00:28:27;100284.84;;;20.14;67.97
78313;BME280;67568;47.438;21.408;2023-09-19T00:30:54;100287.66;;;20.14;68.28
78313;BME280;67568;47.438;21.408;2023-09-19T00:33:27;100282.41;;;20.13;68.53
78313;BME280;67568;47.438;21.408;2023-09-19T00:35:56;100275.59;;;20.14;67.82
78313;BME280;67568;47.438;21.408;2023-09-19T00:38:23;100275.13;;;20.12;67.56
78313;BME280;67568;47.438;21.408;2023-09-19T00:40:50;100274.03;;;20.16;67.24
78313;BME280;67568;47.438;21.408;2023-09-19T00:43:17;100271.16;;;20.13;67.76
78313;BME280;67568;47.438;21.408;2023-09-19T00:45:46;100270.75;;;20.14;67.73
78313;BME280;67568;47.438;21.408;2023-09-19T00:48:14;100261.44;;;20.10;66.75
78313;BME280;67568;47.438;21.408;2023-09-19T00:50:42;100263.53;;;20.13;66.87
78313;BME280;67568;47.438;21.408;2023-09-19T00:53:14;100259.44;;;20.11;67.00
78313;BME280;67568;47.438;21.408;2023-09-19T00:55:41;100259.50;;;20.14;67.28
78313;BME280;67568;47.438;21.408;2023-09-19T00:58:08;100252.28;;;20.13;66.60
78313;BME280;67568;47.438;21.408;2023-09-19T01:00:36;100249.47;;;20.13;66.33
78313;BME280;67568;47.438;21.408;2023-09-19T01:03:03;100241.47;;;20.15;66.53
78313;BME280;67568;47.438;21.408;2023-09-19T01:05:30;100244.63;;;20.14;66.21
78313;BME280;67568;47.438;21.408;2023-09-19T01:07:57;100222.19;;;20.17;65.75
78313;BME280;67568;47.438;21.408;2023-09-19T01:10:24;100226.56;;;20.15;66.69
78313;BME280;67568;47.438;21.408;2023-09-19T01:13:29;100226.66;;;20.18;65.82
78313;BME280;67568;47.438;21.408;2023-09-19T01:16:12;100220.22;;;20.18;65.88
78313;BME280;67568;47.438;21.408;2023-09-19T01:27:33;100219.84;;;20.19;65.85
78313;BME280;67568;47.438;21.408;2023-09-19T01:30:13;100210.53;;;20.15;65.38
78313;BME280;67568;47.438;21.408;2023-09-19T01:32:41;100217.69;;;20.13;64.93
78313;BME280;67568;47.438;21.408;2023-09-19T01:35:09;100214.22;;;20.19;64.97
78313;BME280;67568;47.438;21.408;2023-09-19T01:37:35;100209.78;;;20.18;65.09
78313;BME280;67568;47.438;21.408;2023-09-19T01:40:04;100215.03;;;20.20;64.91
78313;BME280;67568;47.438;21.408;2023-09-19T01:45:50;100207.84;;;20.22;65.24
78313;BME280;67568;47.438;21.408;2023-09-19T01:51:16;100203.84;;;20.24;64.94
78313;BME280;67568;47.438;21.408;2023-09-19T01:53:53;100198.53;;;20.18;64.80
78313;BME280;67568;47.438;21.408;2023-09-19T01:56:33;100199.69;;;20.17;64.98
78313;BME280;67568;47.438;21.408;2023-09-19T01:59:24;100194.97;;;20.21;64.53
78313;BME280;67568;47.438;21.408;2023-09-19T02:01:53;100198.88;;;20.17;64.97
78313;BME280;67568;47.438;21.408;2023-09-19T02:04:27;100189.63;;;20.16;65.13
78313;BME280;67568;47.438;21.408;2023-09-19T02:06:53;100187.28;;;20.18;65.01
78313;BME280;67568;47.438;21.408;2023-09-19T02:09:23;100193.19;;;20.13;65.36
78313;BME280;67568;47.438;21.408;2023-09-19T02:11:50;100188.81;;;20.16;64.51
78313;BME280;67568;47.438;21.408;2023-09-19T02:14:16;100184.00;;;20.16;64.00
78313;BME280;67568;47.438;21.408;2023-09-19T02:16:43;100181.19;;;20.16;64.85
78313;BME280;67568;47.438;21.408;2023-09-19T02:19:19;100188.88;;;20.19;64.27
78313;BME280;67568;47.438;21.408;2023-09-19T02:21:46;100189.63;;;20.16;63.51
78313;BME280;67568;47.438;21.408;2023-09-19T02:24:15;100177.56;;;20.16;63.97
78313;BME280;67568;47.438;21.408;2023-09-19T02:26:44;100180.00;;;20.17;64.03
78313;BME280;67568;47.438;21.408;2023-09-19T02:29:11;100173.22;;;20.18;63.91
78313;BME280;67568;47.438;21.408;2023-09-19T02:31:38;100170.28;;;20.15;64.19
78313;BME280;67568;47.438;21.408;2023-09-19T02:34:08;100176.31;;;20.13;64.43
78313;BME280;67568;47.438;21.408;2023-09-19T02:36:35;100180.75;;;20.14;63.40
78313;BME280;67568;47.438;21.408;2023-09-19T02:39:02;100178.38;;;20.16;63.43
78313;BME280;67568;47.438;21.408;2023-09-19T02:41:29;100180.38;;;20.16;63.62
78313;BME280;67568;47.438;21.408;2023-09-19T02:43:58;100178.31;;;20.13;64.08
78313;BME280;67568;47.438;21.408;2023-09-19T02:46:28;100169.06;;;20.12;64.68
78313;BME280;67568;47.438;21.408;2023-09-19T02:48:55;100169.50;;;20.14;64.65
78313;BME280;67568;47.438;21.408;2023-09-19T02:51:22;100166.69;;;20.14;64.88
78313;BME280;67568;47.438;21.408;2023-09-19T02:53:50;100160.63;;;20.12;64.76
78313;BME280;67568;47.438;21.408;2023-09-19T02:56:17;100170.22;;;20.11;64.11
78313;BME280;67568;47.438;21.408;2023-09-19T02:58:45;100166.69;;;20.14;63.84
78313;BME280;67568;47.438;21.408;2023-09-19T03:01:12;100171.13;;;20.15;64.00
78313;BME280;67568;47.438;21.408;2023-09-19T03:03:39;100171.03;;;20.12;63.81
78313;BME280;67568;47.438;21.408;2023-09-19T03:06:06;100170.28;;;20.15;64.65
78313;BME280;67568;47.438;21.408;2023-09-19T03:08:33;100165.41;;;20.12;64.30
78313;BME280;67568;47.438;21.408;2023-09-19T03:11:00;100162.53;;;20.08;64.05
78313;BME280;67568;47.438;21.408;2023-09-19T03:13:27;100169.88;;;20.13;64.49
78313;BME280;67568;47.438;21.408;2023-09-19T03:15:54;100168.16;;;20.08;64.25
78313;BME280;67568;47.438;21.408;2023-09-19T03:18:24;100162.53;;;20.08;63.92
78313;BME280;67568;47.438;21.408;2023-09-19T03:20:55;100165.75;;;20.07;64.45
78313;BME280;67568;47.438;21.408;2023-09-19T03:23:23;100157.22;;;20.03;64.92
78313;BME280;67568;47.438;21.408;2023-09-19T03:25:49;100158.84;;;20.04;64.95
78313;BME280;67568;47.438;21.408;2023-09-19T03:28:16;100157.44;;;19.94;64.64
78313;BME280;67568;47.438;21.408;2023-09-19T03:30:43;100159.59;;;20.01;65.08
78313;BME280;67568;47.438;21.408;2023-09-19T03:33:11;100160.47;;;20.05;65.33
78313;BME280;67568;47.438;21.408;2023-09-19T03:35:39;100150.78;;;20.03;65.05
78313;BME280;67568;47.438;21.408;2023-09-19T03:38:06;100155.31;;;19.88;65.42
78313;BME280;67568;47.438;21.408;2023-09-19T03:40:33;100158.69;;;19.97;65.76
78313;BME280;67568;47.438;21.408;2023-09-19T03:43:00;100141.97;;;19.85;65.17
78313;BME280;67568;47.438;21.408;2023-09-19T03:45:27;100147.69;;;19.88;65.53
78313;BME280;67568;47.438;21.408;2023-09-19T03:47:57;100146.34;;;19.82;65.85
78313;BME280;67568;47.438;21.408;2023-09-19T03:50:24;100143.53;;;19.82;65.49
78313;BME280;67568;47.438;21.408;2023-09-19T03:52:56;100141.41;;;19.75;65.97
78313;BME280;67568;47.438;21.408;2023-09-19T03:55:23;100140.19;;;19.76;65.53
78313;BME280;67568;47.438;21.408;2023-09-19T03:57:53;100130.16;;;19.75;65.79
78313;BME280;67568;47.438;21.408;2023-09-19T04:00:20;100131.31;;;19.74;65.77
78313;BME280;67568;47.438;21.408;2023-09-19T04:02:48;100136.94;;;19.74;66.85
78313;BME280;67568;47.438;21.408;2023-09-19T04:05:17;100134.13;;;19.74;66.20
78313;BME280;67568;47.438;21.408;2023-09-19T04:07:44;100134.72;;;19.64;66.80
78313;BME280;67568;47.438;21.408;2023-09-19T04:10:11;100137.50;;;19.64;66.89
78313;BME280;67568;47.438;21.408;2023-09-19T04:12:38;100140.22;;;19.61;67.17
78313;BME280;67568;47.438;21.408;2023-09-19T04:15:07;100140.91;;;19.54;67.74
78313;BME280;67568;47.438;21.408;2023-09-19T04:17:34;100134.81;;;19.52;67.01
78313;BME280;67568;47.438;21.408;2023-09-19T04:20:01;100134.53;;;19.57;67.45
78313;BME280;67568;47.438;21.408;2023-09-19T04:22:28;100139.34;;;19.57;67.44
78313;BME280;67568;47.438;21.408;2023-09-19T04:24:55;100130.38;;;19.51;67.64
78313;BME280;67568;47.438;21.408;2023-09-19T04:27:22;100131.13;;;19.48;67.49
78313;BME280;67568;47.438;21.408;2023-09-19T04:29:48;100129.19;;;19.52;67.06
78313;BME280;67568;47.438;21.408;2023-09-19T04:32:15;100125.66;;;19.55;67.05
78313;BME280;67568;47.438;21.408;2023-09-19T04:34:44;100128.47;;;19.55;67.19
78313;BME280;67568;47.438;21.408;2023-09-19T04:37:11;100123.56;;;19.52;67.83
78313;BME280;67568;47.438;21.408;2023-09-19T04:39:40;100123.28;;;19.57;67.38
78313;BME280;67568;47.438;21.408;2023-09-19T04:42:07;100127.66;;;19.54;67.11
78313;BME280;67568;47.438;21.408;2023-09-19T04:44:33;100129.19;;;19.52;67.27
78313;BME280;67568;47.438;21.408;2023-09-19T04:47:00;100135.44;;;19.61;67.77
78313;BME280;67568;47.438;21.408;2023-09-19T04:49:27;100138.53;;;19.56;67.33
78313;BME280;67568;47.438;21.408;2023-09-19T04:51:54;100130.25;;;19.63;66.95
78313;BME280;67568;47.438;21.408;2023-09-19T04:54:21;100139.63;;;19.67;66.92
78313;BME280;67568;47.438;21.408;2023-09-19T04:56:48;100137.00;;;19.59;67.33
78313;BME280;67568;47.438;21.408;2023-09-19T04:59:15;100139.81;;;19.59;67.37
78313;BME280;67568;47.438;21.408;2023-09-19T05:01:42;100138.69;;;19.63;66.90
78313;BME280;67568;47.438;21.408;2023-09-19T05:04:10;100151.75;;;19.71;67.24
78313;BME280;67568;47.438;21.408;2023-09-19T05:06:37;100160.47;;;19.66;67.35
78313;BME280;67568;47.438;21.408;2023-09-19T05:09:04;100151.56;;;19.64;67.00
78313;BME280;67568;47.438;21.408;2023-09-19T05:11:31;100149.66;;;19.68;66.73
78313;BME280;67568;47.438;21.408;2023-09-19T05:13:58;100157.88;;;19.77;67.26
78313;BME280;67568;47.438;21.408;2023-09-19T05:16:28;100151.81;;;19.75;67.22
78313;BME280;67568;47.438;21.408;2023-09-19T05:18:55;100149.44;;;19.77;66.54
78313;BME280;67568;47.438;21.408;2023-09-19T05:21:25;100155.13;;;19.81;67.17
78313;BME280;67568;47.438;21.408;2023-09-19T05:23:52;100162.88;;;19.84;66.53
78313;BME280;67568;47.438;21.408;2023-09-19T05:26:19;100152.78;;;19.83;67.33
78313;BME280;67568;47.438;21.408;2023-09-19T05:28:46;100144.84;;;19.88;67.24
78313;BME280;67568;47.438;21.408;2023-09-19T05:31:13;100143.31;;;19.91;67.28
78313;BME280;67568;47.438;21.408;2023-09-19T05:33:43;100145.03;;;19.95;66.75
78313;BME280;67568;47.438;21.408;2023-09-19T05:36:09;100133.84;;;19.99;66.62
78313;BME280;67568;47.438;21.408;2023-09-19T05:38:37;100141.06;;;20.00;66.89
78313;BME280;67568;47.438;21.408;2023-09-19T05:41:04;100142.72;;;20.01;66.39
78313;BME280;67568;47.438;21.408;2023-09-19T05:43:37;100142.84;;;20.08;67.52
78313;BME280;67568;47.438;21.408;2023-09-19T05:46:08;100150.25;;;20.16;67.37
78313;BME280;67568;47.438;21.408;2023-09-19T05:48:35;100152.25;;;20.16;66.82
78313;BME280;67568;47.438;21.408;2023-09-19T05:51:05;100146.22;;;20.17;67.16
78313;BME280;67568;47.438;21.408;2023-09-19T05:53:32;100140.00;;;20.28;66.55
78313;BME280;67568;47.438;21.408;2023-09-19T05:55:59;100140.75;;;20.25;66.40
78313;BME280;67568;47.438;21.408;2023-09-19T05:58:26;100136.09;;;20.32;65.70
78313;BME280;67568;47.438;21.408;2023-09-19T06:00:53;100144.59;;;20.36;65.21
78313;BME280;67568;47.438;21.408;2023-09-19T06:03:19;100136.25;;;20.43;64.53
78313;BME280;67568;47.438;21.408;2023-09-19T06:05:46;100140.03;;;20.51;64.88
78313;BME280;67568;47.438;21.408;2023-09-19T06:08:13;100141.44;;;20.60;64.76
78313;BME280;67568;47.438;21.408;2023-09-19T06:10:40;100144.44;;;20.71;65.43
78313;BME280;67568;47.438;21.408;2023-09-19T06:13:07;100143.56;;;20.67;63.59
78313;BME280;67568;47.438;21.408;2023-09-19T06:15:34;100139.94;;;20.66;64.16
78313;BME280;67568;47.438;21.408;2023-09-19T06:18:00;100142.00;;;20.70;64.11
78313;BME280;67568;47.438;21.408;2023-09-19T06:20:27;100140.50;;;20.76;63.23
78313;BME280;67568;47.438;21.408;2023-09-19T06:22:55;100142.94;;;20.77;63.30
78313;BME280;67568;47.438;21.408;2023-09-19T06:25:22;100149.44;;;20.81;63.36
78313;BME280;67568;47.438;21.408;2023-09-19T06:27:51;100145.16;;;20.91;63.21
78313;BME280;67568;47.438;21.408;2023-09-19T06:30:19;100142.91;;;21.00;63.13
78313;BME280;67568;47.438;21.408;2023-09-19T06:32:49;100145.34;;;21.02;63.80
78313;BME280;67568;47.438;21.408;2023-09-19T06:35:16;100146.81;;;20.92;63.18
78313;BME280;67568;47.438;21.408;2023-09-19T06:37:43;100147.66;;;20.96;63.29
78313;BME280;67568;47.438;21.408;2023-09-19T06:40:14;100145.13;;;20.87;63.45
78313;BME280;67568;47.438;21.408;2023-09-19T06:42:45;100149.81;;;20.80;63.78
78313;BME280;67568;47.438;21.408;2023-09-19T06:45:13;100147.63;;;20.93;63.52
78313;BME280;67568;47.438;21.408;2023-09-19T06:47:40;100150.38;;;20.89;64.07
78313;BME280;67568;47.438;21.408;2023-09-19T06:50:07;100142.75;;;20.89;64.19
78313;BME280;67568;47.438;21.408;2023-09-19T06:52:35;100151.59;;;20.92;63.79
78313;BME280;67568;47.438;21.408;2023-09-19T06:55:06;100148.88;;;20.95;63.77
78313;BME280;67568;47.438;21.408;2023-09-19T06:57:33;100154.34;;;21.11;64.21
78313;BME280;67568;47.438;21.408;2023-09-19T07:00:02;100145.38;;;21.55;62.84
78313;BME280;67568;47.438;21.408;2023-09-19T07:02:29;100159.25;;;21.71;62.69
78313;BME280;67568;47.438;21.408;2023-09-19T07:04:56;100154.19;;;21.53;63.10
78313;BME280;67568;47.438;21.408;2023-09-19T07:07:23;100155.06;;;21.58;63.12
78313;BME280;67568;47.438;21.408;2023-09-19T07:09:50;100167.94;;;21.55;63.31
78313;BME280;67568;47.438;21.408;2023-09-19T07:12:16;100167.16;;;21.58;63.56
78313;BME280;67568;47.438;21.408;2023-09-19T07:14:46;100171.22;;;21.61;64.50
78313;BME280;67568;47.438;21.408;2023-09-19T07:17:13;100166.84;;;21.63;64.12
78313;BME280;67568;47.438;21.408;2023-09-19T07:19:40;100175.19;;;21.56;64.27
78313;BME280;67568;47.438;21.408;2023-09-19T07:22:06;100177.66;;;21.61;64.72
78313;BME280;67568;47.438;21.408;2023-09-19T07:24:33;100174.94;;;21.68;64.70
78313;BME280;67568;47.438;21.408;2023-09-19T07:27:00;100177.00;;;21.71;65.34
78313;BME280;67568;47.438;21.408;2023-09-19T07:29:28;100173.69;;;22.26;64.07
78313;BME280;67568;47.438;21.408;2023-09-19T07:31:55;100182.69;;;22.39;63.27
78313;BME280;67568;47.438;21.408;2023-09-19T07:34:22;100178.09;;;22.23;63.90
78313;BME280;67568;47.438;21.408;2023-09-19T07:36:49;100189.91;;;22.36;63.59
78313;BME280;67568;47.438;21.408;2023-09-19T07:39:16;100179.38;;;22.30;64.05
78313;BME280;67568;47.438;21.408;2023-09-19T07:41:49;100193.25;;;22.45;63.96
78313;BME280;67568;47.438;21.408;2023-09-19T07:44:16;100190.69;;;22.33;64.66
78313;BME280;67568;47.438;21.408;2023-09-19T07:46:43;100186.53;;;22.20;64.86
78313;BME280;67568;47.438;21.408;2023-09-19T07:49:09;100198.50;;;22.13;65.54
78313;BME280;67568;47.438;21.408;2023-09-19T07:51:37;100193.91;;;22.01;65.12
78313;BME280;67568;47.438;21.408;2023-09-19T07:54:06;100192.78;;;21.76;66.72
78313;BME280;67568;47.438;21.408;2023-09-19T07:56:33;100200.59;;;21.86;66.96
78313;BME280;67568;47.438;21.408;2023-09-19T07:58:59;100203.00;;;21.88;66.26
78313;BME280;67568;47.438;21.408;2023-09-19T08:01:26;100196.50;;;21.84;66.92
78313;BME280;67568;47.438;21.408;2023-09-19T08:03:53;100201.97;;;21.69;67.58
78313;BME280;67568;47.438;21.408;2023-09-19T08:06:22;100206.13;;;21.79;67.15
78313;BME280;67568;47.438;21.408;2023-09-19T08:08:51;100201.16;;;21.69;67.25
78313;BME280;67568;47.438;21.408;2023-09-19T08:11:17;100198.16;;;21.88;67.77
78313;BME280;67568;47.438;21.408;2023-09-19T08:13:46;100196.56;;;21.87;67.39
78313;BME280;67568;47.438;21.408;2023-09-19T08:16:15;100203.03;;;21.91;67.57
78313;BME280;67568;47.438;21.408;2023-09-19T08:18:42;100191.09;;;22.01;66.96
78313;BME280;67568;47.438;21.408;2023-09-19T08:21:11;100188.00;;;22.14;67.27
78313;BME280;67568;47.438;21.408;2023-09-19T08:23:41;100181.84;;;22.35;66.63
78313;BME280;67568;47.438;21.408;2023-09-19T08:26:07;100193.75;;;22.55;65.61
78313;BME280;67568;47.438;21.408;2023-09-19T08:28:35;100181.75;;;22.65;65.43
78313;BME280;67568;47.438;21.408;2023-09-19T08:31:03;100179.09;;;22.83;64.18
78313;BME280;67568;47.438;21.408;2023-09-19T08:33:33;100176.44;;;23.01;64.46
78313;BME280;67568;47.438;21.408;2023-09-19T08:36:02;100185.03;;;23.15;63.94
78313;BME280;67568;47.438;21.408;2023-09-19T08:38:29;100178.97;;;23.13;64.21
78313;BME280;67568;47.438;21.408;2023-09-19T08:40:59;100175.41;;;23.23;63.43
78313;BME280;67568;47.438;21.408;2023-09-19T08:43:27;100174.38;;;23.53;62.33
78313;BME280;67568;47.438;21.408;2023-09-19T08:45:59;100174.34;;;23.46;62.39
78313;BME280;67568;47.438;21.408;2023-09-19T08:48:29;100171.13;;;23.47;60.83
78313;BME280;67568;47.438;21.408;2023-09-19T08:51:06;100168.34;;;23.51;60.25
78313;BME280;67568;47.438;21.408;2023-09-19T08:53:46;100174.81;;;23.55;60.58
78313;BME280;67568;47.438;21.408;2023-09-19T08:56:17;100176.03;;;23.54;60.51
78313;BME280;67568;47.438;21.408;2023-09-19T08:58:48;100174.84;;;23.62;59.76
78313;BME280;67568;47.438;21.408;2023-09-19T09:01:17;100162.88;;;23.79;58.79
78313;BME280;67568;47.438;21.408;2023-09-19T09:03:48;100171.84;;;24.07;58.18
78313;BME280;67568;47.438;21.408;2023-09-19T09:06:16;100163.44;;;24.28;57.29
78313;BME280;67568;47.438;21.408;2023-09-19T09:08:47;100159.06;;;24.45;56.91
78313;BME280;67568;47.438;21.408;2023-09-19T09:11:15;100154.53;;;24.33;56.57
78313;BME280;67568;47.438;21.408;2023-09-19T09:13:42;100154.13;;;24.20;56.21
78313;BME280;67568;47.438;21.408;2023-09-19T09:16:09;100152.03;;;24.03;57.04
78313;BME280;67568;47.438;21.408;2023-09-19T09:18:36;100145.16;;;24.00;56.66
78313;BME280;67568;47.438;21.408;2023-09-19T09:21:04;100149.22;;;24.03;57.14
78313;BME280;67568;47.438;21.408;2023-09-19T09:23:31;100153.22;;;23.98;57.34
78313;BME280;67568;47.438;21.408;2023-09-19T09:25:59;100152.84;;;23.96;56.81
78313;BME280;67568;47.438;21.408;2023-09-19T09:28:27;100147.50;;;23.84;58.14
78313;BME280;67568;47.438;21.408;2023-09-19T09:30:55;100148.66;;;23.72;57.07
78313;BME280;67568;47.438;21.408;2023-09-19T09:33:22;100149.81;;;23.68;56.57
78313;BME280;67568;47.438;21.408;2023-09-19T09:35:51;100152.19;;;23.58;57.44
78313;BME280;67568;47.438;21.408;2023-09-19T09:38:25;100138.47;;;23.57;57.53
78313;BME280;67568;47.438;21.408;2023-09-19T09:40:57;100149.75;;;23.53;57.42
78313;BME280;67568;47.438;21.408;2023-09-19T09:46:16;100148.13;;;23.56;60.15
78313;BME280;67568;47.438;21.408;2023-09-19T09:48:44;100152.22;;;23.62;59.53
78313;BME280;67568;47.438;21.408;2023-09-19T09:51:11;100146.25;;;23.71;58.31
78313;BME280;67568;47.438;21.408;2023-09-19T09:53:38;100146.28;;;23.82;57.48
78313;BME280;67568;47.438;21.408;2023-09-19T09:56:09;100137.41;;;23.90;56.80
78313;BME280;67568;47.438;21.408;2023-09-19T09:58:51;100144.72;;;23.91;57.00
78313;BME280;67568;47.438;21.408;2023-09-19T10:01:18;100143.50;;;23.92;56.77
78313;BME280;67568;47.438;21.408;2023-09-19T10:03:45;100145.09;;;23.93;56.77
78313;BME280;67568;47.438;21.408;2023-09-19T10:06:14;100149.53;;;23.87;57.36
78313;BME280;67568;47.438;21.408;2023-09-19T10:09:00;100162.47;;;23.85;56.96
78313;BME280;67568;47.438;21.408;2023-09-19T10:11:27;100149.91;;;23.82;56.75
78313;BME280;67568;47.438;21.408;2023-09-19T10:13:54;100139.03;;;23.88;57.45
78313;BME280;67568;47.438;21.408;2023-09-19T10:16:21;100145.09;;;23.90;56.83
78313;BME280;67568;47.438;21.408;2023-09-19T10:18:50;100141.91;;;23.95;57.15
78313;BME280;67568;47.438;21.408;2023-09-19T10:21:20;100142.69;;;23.99;56.04
78313;BME280;67568;47.438;21.408;2023-09-19T10:23:48;100145.09;;;23.90;56.41
78313;BME280;67568;47.438;21.408;2023-09-19T10:26:18;100152.41;;;23.94;57.00
78313;BME280;67568;47.438;21.408;2023-09-19T10:28:47;100148.34;;;23.92;57.59
78313;BME280;67568;47.438;21.408;2023-09-19T10:31:20;100151.63;;;24.01;57.73
78313;BME280;67568;47.438;21.408;2023-09-19T10:33:49;100145.19;;;24.15;57.41
78313;BME280;67568;47.438;21.408;2023-09-19T10:36:17;100143.59;;;24.24;57.01
78313;BME280;67568;47.438;21.408;2023-09-19T10:38:45;100140.38;;;24.26;57.26
78313;BME280;67568;47.438;21.408;2023-09-19T10:41:14;100141.59;;;24.29;57.37
78313;BME280;67568;47.438;21.408;2023-09-19T10:43:45;100137.13;;;24.28;57.17
78313;BME280;67568;47.438;21.408;2023-09-19T10:46:17;100133.09;;;24.25;57.60
78313;BME280;67568;47.438;21.408;2023-09-19T10:48:44;100129.00;;;24.12;57.28
78313;BME280;67568;47.438;21.408;2023-09-19T10:51:16;100136.66;;;24.04;57.92
78313;BME280;67568;47.438;21.408;2023-09-19T10:53:52;100133.41;;;23.95;58.42
78313;BME280;67568;47.438;21.408;2023-09-19T10:56:26;100123.69;;;23.85;59.45
78313;BME280;67568;47.438;21.408;2023-09-19T10:59:10;100133.34;;;23.81;58.92
78313;BME280;67568;47.438;21.408;2023-09-19T11:01:56;100126.88;;;23.76;59.05
78313;BME280;67568;47.438;21.408;2023-09-19T11:07:07;100137.94;;;24.17;59.35
78313;BME280;67568;47.438;21.408;2023-09-19T11:09:50;100125.00;;;24.20;60.75
78313;BME280;67568;47.438;21.408;2023-09-19T11:15:04;100133.88;;;24.15;62.61
78313;BME280;67568;47.438;21.408;2023-09-19T11:17:33;100137.09;;;24.10;62.65
78313;BME280;67568;47.438;21.408;2023-09-19T11:30:39;100135.06;;;23.30;65.03
78313;BME280;67568;47.438;21.408;2023-09-19T11:33:19;100120.53;;;23.31;65.55
78313;BME280;67568;47.438;21.408;2023-09-19T11:36:11;100121.81;;;23.45;65.00
78313;BME280;67568;47.438;21.408;2023-09-19T11:43:48;100120.00;;;23.77;63.92
78313;BME280;67568;47.438;21.408;2023-09-19T11:46:16;100118.44;;;24.01;63.91
78313;BME280;67568;47.438;21.408;2023-09-19T11:48:43;100115.25;;;24.10;62.37
78313;BME280;67568;47.438;21.408;2023-09-19T11:51:11;100118.06;;;24.07;62.37
78313;BME280;67568;47.438;21.408;2023-09-19T11:53:39;100120.53;;;24.15;62.98
78313;BME280;67568;47.438;21.408;2023-09-19T11:56:09;100112.06;;;24.30;62.04
78313;BME280;67568;47.438;21.408;2023-09-19T11:58:37;100124.09;;;23.98;62.33
78313;BME280;67568;47.438;21.408;2023-09-19T12:01:05;100120.84;;;23.85;63.13
78313;BME280;67568;47.438;21.408;2023-09-19T12:03:32;100117.16;;;23.74;64.01
78313;BME280;67568;47.438;21.408;2023-09-19T12:05:59;100128.88;;;23.72;63.87
78313;BME280;67568;47.438;21.408;2023-09-19T12:08:26;100133.13;;;23.41;64.91
78313;BME280;67568;47.438;21.408;2023-09-19T12:10:53;100139.91;;;23.29;65.19
78313;BME280;67568;47.438;21.408;2023-09-19T12:13:20;100149.53;;;23.18;65.65
78313;BME280;67568;47.438;21.408;2023-09-19T12:15:47;100139.69;;;22.97;64.98
78313;BME280;67568;47.438;21.408;2023-09-19T12:18:28;100152.56;;;22.95;65.47
78313;BME280;67568;47.438;21.408;2023-09-19T12:20:55;100150.84;;;22.83;66.19
78313;BME280;67568;47.438;21.408;2023-09-19T12:23:22;100145.03;;;22.65;67.02
78313;BME280;67568;47.438;21.408;2023-09-19T12:25:49;100143.38;;;22.60;66.49
78313;BME280;67568;47.438;21.408;2023-09-19T12:28:22;100149.88;;;22.64;66.78
78313;BME280;67568;47.438;21.408;2023-09-19T12:31:05;100158.78;;;22.70;66.69
78313;BME280;67568;47.438;21.408;2023-09-19T12:33:33;100163.88;;;22.54;66.00
78313;BME280;67568;47.438;21.408;2023-09-19T12:35:59;100164.44;;;22.70;66.17
78313;BME280;67568;47.438;21.408;2023-09-19T12:38:28;100147.50;;;22.70;65.00
78313;BME280;67568;47.438;21.408;2023-09-19T12:41:01;100153.03;;;22.59;66.63
78313;BME280;67568;47.438;21.408;2023-09-19T12:43:29;100158.44;;;22.75;65.34
78313;BME280;67568;47.438;21.408;2023-09-19T12:45:56;100151.53;;;22.69;64.86
78313;BME280;67568;47.438;21.408;2023-09-19T12:48:24;100171.75;;;22.75;65.20
78313;BME280;67568;47.438;21.408;2023-09-19T12:51:10;100167.84;;;22.90;65.51
78313;BME280;67568;47.438;21.408;2023-09-19T12:53:43;100168.13;;;22.74;65.54
78313;BME280;67568;47.438;21.408;2023-09-19T12:56:13;100168.03;;;22.67;64.98
78313;BME280;67568;47.438;21.408;2023-09-19T13:01:24;100182.38;;;22.88;65.35
78313;BME280;67568;47.438;21.408;2023-09-19T13:04:20;100174.19;;;22.76;64.92
78313;BME280;67568;47.438;21.408;2023-09-19T13:06:49;100187.53;;;22.79;65.44
78313;BME280;67568;47.438;21.408;2023-09-19T13:09:21;100178.25;;;22.82;64.77
78313;BME280;67568;47.438;21.408;2023-09-19T13:11:49;100179.56;;;22.88;64.25
78313;BME280;67568;47.438;21.408;2023-09-19T13:14:23;100180.78;;;22.91;64.55
78313;BME280;67568;47.438;21.408;2023-09-19T13:19:43;100190.56;;;22.97;63.53
78313;BME280;67568;47.438;21.408;2023-09-19T13:22:47;100196.72;;;23.10;63.29
78313;BME280;67568;47.438;21.408;2023-09-19T13:25:16;100197.06;;;23.05;63.44
78313;BME280;67568;47.438;21.408;2023-09-19T13:27:50;100207.38;;;22.86;64.16
78313;BME280;67568;47.438;21.408;2023-09-19T13:30:18;100207.28;;;22.79;64.45
78313;BME280;67568;47.438;21.408;2023-09-19T13:32:45;100207.16;;;22.65;65.16
78313;BME280;67568;47.438;21.408;2023-09-19T13:35:13;100209.59;;;22.63;64.82